createdAt,value
2023-05-10T00:01:57.363Z,10.41
2023-05-10T00:04:30.172Z,10.41
2023-05-10T00:06:58.949Z,10.42
2023-05-10T00:09:27.433Z,10.43
2023-05-10T00:11:55.648Z,10.46
2023-05-10T00:14:23.917Z,10.49
2023-05-10T00:16:53.646Z,10.51
2023-05-10T00:19:22.232Z,10.54
2023-05-10T00:21:50.184Z,10.56
2023-05-10T00:24:18.419Z,10.57
2023-05-10T00:26:46.741Z,10.54
2023-05-10T00:29:16.145Z,10.53
2023-05-10T00:31:44.429Z,10.51
2023-05-10T00:34:12.990Z,10.44
2023-05-10T00:36:41.127Z,10.47
2023-05-10T00:39:10.053Z,10.44
2023-05-10T00:41:38.373Z,10.42
2023-05-10T00:44:07.121Z,10.38
2023-05-10T00:46:36.037Z,10.36
2023-05-10T00:49:05.480Z,10.33
2023-05-10T00:51:33.991Z,10.29
2023-05-10T00:54:02.370Z,10.25
2023-05-10T00:56:31.125Z,10.23
2023-05-10T00:58:59.280Z,10.24
2023-05-10T01:01:27.635Z,10.24
2023-05-10T01:04:01.310Z,10.23
2023-05-10T01:06:30.302Z,10.24
2023-05-10T01:08:58.476Z,10.25
2023-05-10T01:11:51.986Z,10.25
2023-05-10T01:14:21.757Z,10.26
2023-05-10T01:16:54.638Z,10.27
2023-05-10T01:19:30.316Z,10.26
2023-05-10T01:22:34.295Z,10.24
2023-05-10T01:25:30.924Z,10.19
2023-05-10T01:28:35.776Z,10.13
2023-05-10T01:31:25.812Z,10.08
2023-05-10T01:34:16.667Z,10.03
2023-05-10T01:37:15.313Z,9.97
2023-05-10T01:39:52.223Z,9.91
2023-05-10T01:42:28.895Z,9.86
2023-05-10T01:45:15.296Z,9.83
2023-05-10T01:47:46.270Z,9.84
2023-05-10T01:50:23.112Z,9.83
2023-05-10T01:52:57.110Z,9.82
2023-05-10T01:55:32.867Z,9.82
2023-05-10T01:58:11.590Z,9.83
2023-05-10T02:00:47.665Z,9.84
2023-05-10T02:03:19.576Z,9.86
2023-05-10T02:05:52.085Z,9.87
2023-05-10T02:08:44.832Z,9.88
2023-05-10T02:11:15.870Z,9.87
2023-05-10T02:13:46.500Z,9.88
2023-05-10T02:16:16.244Z,9.87
2023-05-10T02:18:46.736Z,9.83
2023-05-10T02:21:18.699Z,9.80
2023-05-10T02:23:50.257Z,9.76
2023-05-10T02:26:23.553Z,9.74
2023-05-10T02:28:56.642Z,9.71
2023-05-10T02:31:26.104Z,9.72
2023-05-10T02:34:14.775Z,9.73
2023-05-10T02:36:45.113Z,9.73
2023-05-10T02:39:15.578Z,9.74
2023-05-10T02:41:48.361Z,9.74
2023-05-10T02:44:22.437Z,9.76
2023-05-10T02:46:51.676Z,9.77
2023-05-10T02:49:20.238Z,9.78
2023-05-10T02:51:58.019Z,9.75
2023-05-10T02:54:42.747Z,9.73
2023-05-10T03:01:19.010Z,9.65
2023-05-10T03:03:47.032Z,9.60
2023-05-10T03:06:15.634Z,9.58
2023-05-10T03:08:47.289Z,9.56
2023-05-10T03:11:36.854Z,9.55
2023-05-10T03:14:38.555Z,9.56
2023-05-10T03:17:34.247Z,9.56
2023-05-10T03:20:12.169Z,9.57
2023-05-10T03:22:51.972Z,9.59
2023-05-10T03:25:23.731Z,9.62
2023-05-10T03:27:56.972Z,9.67
2023-05-10T03:30:27.721Z,9.71
2023-05-10T03:32:56.448Z,9.74
2023-05-10T03:35:25.555Z,9.79
2023-05-10T03:37:54.320Z,9.84
2023-05-10T03:40:22.803Z,9.89
2023-05-10T03:42:51.172Z,9.91
2023-05-10T03:45:19.568Z,9.90
2023-05-10T03:47:47.960Z,9.88
2023-05-10T03:50:16.702Z,9.89
2023-05-10T03:52:46.129Z,9.92
2023-05-10T03:55:14.138Z,9.94
2023-05-10T03:57:42.366Z,9.95
2023-05-10T04:00:11.284Z,9.95
2023-05-10T04:02:46.532Z,9.96
2023-05-10T04:05:35.054Z,9.96
2023-05-10T04:08:05.269Z,9.96
2023-05-10T04:10:33.759Z,9.98
2023-05-10T04:13:02.449Z,10.04
2023-05-10T04:15:30.574Z,10.08
2023-05-10T04:17:58.978Z,10.13
2023-05-10T04:20:27.978Z,10.20
2023-05-10T04:22:56.263Z,10.27
2023-05-10T04:25:24.834Z,10.32
2023-05-10T04:28:25.481Z,10.39
2023-05-10T04:30:53.786Z,10.47
2023-05-10T04:33:22.774Z,10.53
2023-05-10T04:35:50.974Z,10.57
2023-05-10T04:38:19.023Z,10.60
2023-05-10T04:40:47.373Z,10.61
2023-05-10T04:43:16.039Z,10.59
2023-05-10T04:45:44.828Z,10.58
2023-05-10T04:48:13.718Z,10.58
2023-05-10T04:50:42.917Z,10.60
2023-05-10T04:53:11.829Z,10.62
2023-05-10T04:55:40.654Z,10.64
2023-05-10T04:58:08.767Z,10.65
2023-05-10T05:00:37.650Z,10.68
2023-05-10T05:03:06.981Z,10.70
2023-05-10T05:10:18.927Z,10.70
2023-05-10T05:12:47.881Z,10.73
2023-05-10T05:15:18.514Z,10.71
2023-05-10T05:17:46.525Z,10.69
2023-05-10T05:20:16.391Z,10.76
2023-05-10T05:22:44.858Z,10.84
2023-05-10T05:25:13.780Z,10.86
2023-05-10T05:27:42.543Z,10.87
2023-05-10T05:30:11.247Z,10.95
2023-05-10T05:32:42.935Z,11.02
2023-05-10T05:35:12.792Z,10.91
2023-05-10T05:37:43.529Z,10.82
2023-05-10T05:40:15.831Z,10.79
2023-05-10T05:43:38.513Z,10.71
2023-05-10T05:46:07.571Z,10.83
2023-05-10T05:48:36.426Z,10.68
2023-05-10T05:51:07.096Z,10.54
2023-05-10T05:53:39.848Z,10.46
2023-05-10T05:56:09.476Z,10.52
2023-05-10T05:58:37.729Z,10.58
2023-05-10T06:01:06.004Z,10.71
2023-05-10T06:03:34.616Z,11.00
2023-05-10T06:06:02.958Z,11.09
2023-05-10T06:08:31.335Z,11.08
2023-05-10T06:10:59.620Z,11.22
2023-05-10T06:13:33.932Z,11.35
2023-05-10T06:16:04.288Z,11.39
2023-05-10T06:18:33.757Z,11.38
2023-05-10T06:21:02.639Z,11.30
2023-05-10T06:27:52.580Z,11.39
2023-05-10T06:30:24.979Z,11.50
2023-05-10T06:32:53.158Z,11.59
2023-05-10T06:35:21.686Z,11.70
2023-05-10T06:37:50.683Z,11.75
2023-05-10T06:45:00.158Z,12.03
2023-05-10T06:47:28.241Z,12.19
2023-05-10T06:49:57.719Z,12.32
2023-05-10T06:52:26.100Z,12.25
2023-05-10T06:55:02.572Z,12.25
2023-05-10T06:57:32.077Z,12.30
2023-05-10T07:00:09.076Z,12.49
2023-05-10T07:02:37.692Z,12.51
2023-05-10T07:05:19.660Z,12.59
2023-05-10T07:07:48.821Z,12.51
2023-05-10T07:10:17.320Z,12.40
2023-05-10T07:12:45.714Z,12.30
2023-05-10T07:15:13.942Z,12.48
2023-05-10T07:17:44.074Z,12.80
2023-05-10T07:20:14.672Z,13.12
2023-05-10T07:22:42.978Z,13.23
2023-05-10T07:25:12.203Z,13.34
2023-05-10T07:27:40.108Z,13.59
2023-05-10T07:30:09.239Z,13.84
2023-05-10T07:32:37.864Z,14.15
2023-05-10T07:35:08.022Z,14.13
2023-05-10T07:37:36.321Z,14.00
2023-05-10T07:40:05.207Z,14.07
2023-05-10T07:42:34.286Z,14.20
2023-05-10T07:45:02.307Z,14.38
2023-05-10T07:47:30.336Z,14.52
2023-05-10T07:50:00.978Z,14.62
2023-05-10T07:52:29.450Z,14.70
2023-05-10T07:59:09.267Z,14.41
2023-05-10T08:01:38.830Z,14.10
2023-05-10T08:04:07.126Z,13.88
2023-05-10T08:06:39.265Z,13.66
2023-05-10T08:09:07.715Z,13.64
2023-05-10T08:11:36.630Z,13.91
2023-05-10T08:14:05.014Z,14.23
2023-05-10T08:16:35.369Z,14.51
2023-05-10T08:19:05.868Z,14.61
2023-05-10T08:21:34.863Z,14.60
2023-05-10T08:24:04.158Z,14.59
2023-05-10T08:26:35.801Z,14.82
2023-05-10T08:29:04.242Z,14.96
2023-05-10T08:31:32.344Z,14.79
2023-05-10T08:34:04.984Z,14.68
2023-05-10T08:36:33.707Z,14.43
2023-05-10T08:39:02.203Z,14.39
2023-05-10T08:41:37.142Z,14.26
2023-05-10T08:44:09.925Z,14.21
2023-05-10T08:46:41.469Z,14.40
2023-05-10T08:49:32.235Z,14.41
2023-05-10T08:52:24.644Z,14.54
2023-05-10T08:54:53.526Z,14.61
2023-05-10T08:57:22.401Z,14.73
2023-05-10T08:59:50.578Z,14.89
2023-05-10T09:02:22.559Z,14.78
2023-05-10T09:04:52.112Z,14.49
2023-05-10T09:07:21.258Z,14.54
2023-05-10T09:09:50.072Z,14.78
2023-05-10T09:12:17.932Z,14.62
2023-05-10T09:14:48.008Z,14.67
2023-05-10T09:17:16.050Z,14.82
2023-05-10T09:19:46.610Z,14.99
2023-05-10T09:22:14.857Z,14.90
2023-05-10T09:24:48.381Z,14.82
2023-05-10T09:27:16.763Z,15.02
2023-05-10T09:29:44.939Z,15.14
2023-05-10T09:33:03.100Z,15.13
2023-05-10T09:35:37.392Z,15.42
2023-05-10T09:38:06.087Z,15.54
2023-05-10T09:40:34.131Z,15.58
2023-05-10T09:43:08.470Z,15.60
2023-05-10T09:45:38.962Z,15.52
2023-05-10T09:48:08.231Z,15.36
2023-05-10T09:50:36.789Z,15.22
2023-05-10T09:53:07.581Z,15.42
2023-05-10T09:55:50.535Z,15.58
2023-05-10T09:58:18.560Z,15.56
2023-05-10T10:00:52.812Z,15.39
2023-05-10T10:03:22.522Z,15.18
2023-05-10T10:05:51.626Z,14.89
2023-05-10T10:08:20.619Z,14.85
2023-05-10T10:10:48.818Z,14.95
2023-05-10T10:13:18.485Z,15.18
2023-05-10T10:15:49.253Z,15.36
2023-05-10T10:18:19.022Z,15.29
2023-05-10T10:20:47.455Z,15.47
2023-05-10T10:23:17.580Z,15.55
2023-05-10T10:30:48.220Z,15.81
2023-05-10T10:33:34.753Z,15.61
2023-05-10T10:36:05.388Z,15.91
2023-05-10T10:38:49.003Z,15.89
2023-05-10T10:42:09.932Z,15.60
2023-05-10T10:44:43.125Z,15.77
2023-05-10T10:47:26.828Z,15.81
2023-05-10T10:50:01.330Z,15.93
2023-05-10T10:52:36.487Z,15.80
2023-05-10T10:55:12.417Z,15.93
2023-05-10T10:57:53.630Z,15.96
2023-05-10T11:00:29.957Z,15.92
2023-05-10T11:03:00.176Z,15.85
2023-05-10T11:05:28.789Z,15.77
2023-05-10T11:08:00.433Z,15.83
2023-05-10T11:10:28.812Z,15.90
2023-05-10T11:13:12.495Z,15.85
2023-05-10T11:15:49.044Z,15.96
2023-05-10T11:18:21.639Z,16.18
2023-05-10T11:20:53.663Z,16.37
2023-05-10T11:27:28.196Z,16.15
2023-05-10T11:29:57.180Z,15.73
2023-05-10T11:32:25.432Z,15.47
2023-05-10T11:35:19.180Z,15.43
2023-05-10T11:37:50.615Z,15.42
2023-05-10T11:40:18.933Z,15.50
2023-05-10T11:42:49.026Z,15.59
2023-05-10T11:45:17.500Z,15.67
2023-05-10T11:47:45.865Z,15.58
2023-05-10T11:50:14.035Z,15.24
2023-05-10T11:52:42.330Z,14.91
2023-05-10T11:55:11.289Z,14.91
2023-05-10T11:57:44.227Z,14.71
2023-05-10T12:00:13.433Z,14.70
2023-05-10T12:02:48.632Z,14.74
2023-05-10T12:05:17.580Z,14.66
2023-05-10T12:07:45.838Z,14.54
2023-05-10T12:10:16.758Z,14.56
2023-05-10T12:12:52.617Z,14.65
2023-05-10T12:15:25.048Z,14.75
2023-05-10T12:17:53.413Z,14.86
2023-05-10T12:20:23.966Z,14.93
2023-05-10T12:22:57.738Z,15.00
2023-05-10T12:25:37.113Z,15.06
2023-05-10T12:28:11.285Z,15.14
2023-05-10T12:30:40.675Z,15.21
2023-05-10T12:33:17.843Z,15.21
2023-05-10T12:35:55.859Z,15.17
2023-05-10T12:38:37.019Z,15.11
2023-05-10T12:41:07.323Z,15.08
2023-05-10T12:43:36.939Z,15.05
2023-05-10T12:46:11.457Z,15.04
2023-05-10T12:48:40.948Z,15.00
2023-05-10T12:51:29.260Z,14.95
2023-05-10T12:53:57.413Z,14.78
2023-05-10T12:56:26.419Z,14.70
2023-05-10T12:58:54.824Z,14.59
2023-05-10T13:01:23.460Z,14.56
2023-05-10T13:03:52.247Z,14.46
2023-05-10T13:07:09.931Z,14.35
2023-05-10T13:09:38.608Z,14.35
2023-05-10T13:12:08.738Z,14.30
2023-05-10T13:14:38.552Z,14.36
2023-05-10T13:17:06.588Z,14.42
2023-05-10T13:19:34.881Z,14.48
2023-05-10T13:22:03.182Z,14.52
2023-05-10T13:24:31.365Z,14.61
2023-05-10T13:26:59.461Z,14.60
2023-05-10T13:29:27.499Z,14.45
2023-05-10T13:31:56.032Z,14.49
2023-05-10T13:34:25.291Z,14.53
2023-05-10T13:36:56.908Z,14.66
2023-05-10T13:39:25.170Z,14.73
2023-05-10T13:41:55.727Z,14.77
2023-05-10T13:44:24.841Z,14.47
2023-05-10T13:46:53.094Z,14.37
2023-05-10T13:49:22.724Z,14.30
2023-05-10T13:51:50.773Z,14.36
2023-05-10T13:54:21.689Z,14.38
2023-05-10T13:56:49.929Z,14.41
2023-05-10T13:59:17.891Z,14.56
2023-05-10T14:01:46.420Z,14.49
2023-05-10T14:04:14.765Z,14.28
2023-05-10T14:06:43.198Z,14.22
2023-05-10T14:09:11.521Z,13.96
2023-05-10T14:11:43.614Z,13.78
2023-05-10T14:15:01.456Z,13.79
2023-05-10T14:17:29.625Z,14.07
2023-05-10T14:19:58.779Z,14.15
2023-05-10T14:22:27.070Z,14.15
2023-05-10T14:24:55.188Z,14.06
2023-05-10T14:27:24.155Z,14.04
2023-05-10T14:29:52.233Z,14.08
2023-05-10T14:32:20.361Z,14.02
2023-05-10T14:34:48.586Z,13.97
2023-05-10T14:37:17.609Z,13.98
2023-05-10T14:39:45.694Z,14.02
2023-05-10T14:42:13.811Z,14.12
2023-05-10T14:44:41.812Z,14.13
2023-05-10T14:47:11.865Z,14.07
2023-05-10T14:49:57.996Z,13.83
2023-05-10T14:52:52.048Z,13.70
2023-05-10T14:55:20.531Z,13.64
2023-05-10T14:57:51.283Z,13.57
2023-05-10T15:00:20.948Z,13.62
2023-05-10T15:02:50.119Z,13.74
2023-05-10T15:05:18.967Z,13.77
2023-05-10T15:07:47.521Z,13.71
2023-05-10T15:10:15.820Z,13.62
2023-05-10T15:12:44.000Z,13.55
2023-05-10T15:15:12.065Z,13.46
2023-05-10T15:17:40.072Z,13.48
2023-05-10T15:20:09.001Z,13.46
2023-05-10T15:22:37.071Z,13.37
2023-05-10T15:25:05.641Z,13.29
2023-05-10T15:27:33.807Z,13.32
2023-05-10T15:30:02.224Z,13.31
2023-05-10T15:32:30.304Z,13.41
2023-05-10T15:34:59.175Z,13.46
2023-05-10T15:37:31.788Z,13.54
2023-05-10T15:40:06.580Z,13.50
2023-05-10T15:42:34.586Z,13.49
2023-05-10T15:45:02.671Z,13.58
2023-05-10T15:47:31.807Z,13.55
2023-05-10T15:50:00.506Z,13.46
2023-05-10T15:52:29.012Z,13.44
2023-05-10T15:54:59.019Z,13.43
2023-05-10T15:57:27.199Z,13.45
2023-05-10T15:59:56.415Z,13.46
2023-05-10T16:02:24.624Z,13.45
2023-05-10T16:04:53.396Z,13.49
2023-05-10T16:07:21.959Z,13.52
2023-05-10T16:09:50.151Z,13.49
2023-05-10T16:12:18.672Z,13.40
2023-05-10T16:14:47.182Z,13.42
2023-05-10T16:17:15.491Z,13.51
2023-05-10T16:19:43.750Z,13.59
2023-05-10T16:22:11.929Z,13.67
2023-05-10T16:24:40.178Z,13.71
2023-05-10T16:27:08.912Z,13.74
2023-05-10T16:29:37.166Z,13.77
2023-05-10T16:32:05.806Z,13.81
2023-05-10T16:34:34.584Z,13.77
2023-05-10T16:37:02.502Z,13.77
2023-05-10T16:39:31.318Z,13.79
2023-05-10T16:41:59.370Z,13.80
2023-05-10T16:53:18.766Z,13.21
2023-05-10T16:55:47.712Z,13.10
2023-05-10T16:58:21.533Z,13.02
2023-05-10T17:00:49.954Z,13.05
2023-05-10T17:03:18.705Z,13.08
2023-05-10T17:05:46.856Z,13.01
2023-05-10T17:08:15.016Z,12.93
2023-05-10T17:10:43.213Z,12.86
2023-05-10T17:13:11.213Z,12.75
2023-05-10T17:15:39.800Z,12.77
2023-05-10T17:18:08.539Z,12.82
2023-05-10T17:20:36.858Z,12.86
2023-05-10T17:23:04.955Z,12.78
2023-05-10T17:25:53.714Z,12.70
2023-05-10T17:28:22.052Z,12.65
2023-05-10T17:30:58.401Z,12.59
2023-05-10T17:33:26.501Z,12.46
2023-05-10T17:35:55.724Z,12.39
2023-05-10T17:38:25.317Z,12.38
2023-05-10T17:40:53.725Z,12.39
2023-05-10T17:43:22.008Z,12.44
2023-05-10T17:45:50.084Z,12.48
2023-05-10T17:48:18.193Z,12.51
2023-05-10T17:50:46.508Z,12.55
2023-05-10T17:53:16.564Z,12.58
2023-05-10T17:55:45.133Z,12.62
2023-05-10T17:58:13.321Z,12.66
2023-05-10T18:00:41.473Z,12.69
2023-05-10T18:03:11.946Z,12.71
2023-05-10T18:05:40.063Z,12.72
2023-05-10T18:08:08.864Z,12.73
2023-05-10T18:10:39.991Z,12.73
2023-05-10T18:13:09.459Z,12.72
2023-05-10T18:15:37.624Z,12.70
2023-05-10T18:18:05.953Z,12.68
2023-05-10T18:20:34.803Z,12.66
2023-05-10T18:23:03.443Z,12.62
2023-05-10T18:25:31.510Z,12.60
2023-05-10T18:27:59.710Z,12.60
2023-05-10T18:30:27.975Z,12.60
2023-05-10T18:32:56.284Z,12.59
2023-05-10T18:35:24.504Z,12.58
2023-05-10T18:37:52.670Z,12.56
2023-05-10T18:40:21.167Z,12.53
2023-05-10T18:42:50.815Z,12.51
2023-05-10T18:45:19.519Z,12.50
2023-05-10T18:47:48.726Z,12.44
2023-05-10T18:50:18.864Z,12.35
2023-05-10T18:52:47.087Z,12.20
2023-05-10T18:55:15.471Z,11.98
2023-05-10T18:57:45.388Z,11.81
2023-05-10T19:00:14.573Z,11.70
2023-05-10T19:02:43.036Z,11.72
2023-05-10T19:05:11.222Z,11.67
2023-05-10T19:07:47.029Z,11.57
2023-05-10T19:10:15.114Z,11.54
2023-05-10T19:12:43.226Z,11.52
2023-05-10T19:15:11.766Z,11.44
2023-05-10T19:17:42.080Z,11.37
2023-05-10T19:20:30.937Z,11.24
2023-05-10T19:23:09.869Z,11.19
2023-05-10T19:25:42.526Z,11.08
2023-05-10T19:28:19.337Z,10.98
2023-05-10T19:30:47.406Z,10.91
2023-05-10T19:33:15.561Z,10.85
2023-05-10T19:35:43.732Z,10.86
2023-05-10T19:38:13.012Z,10.91
2023-05-10T19:40:41.192Z,10.95
2023-05-10T19:43:09.478Z,10.95
2023-05-10T19:45:37.770Z,10.92
2023-05-10T19:48:06.625Z,10.98
2023-05-10T19:50:34.978Z,11.05
2023-05-10T19:53:03.113Z,11.03
2023-05-10T19:55:32.812Z,11.03
2023-05-10T19:58:00.961Z,11.08
2023-05-10T20:00:29.387Z,11.15
2023-05-10T20:02:59.134Z,11.17
2023-05-10T20:05:27.442Z,11.17
2023-05-10T20:07:55.630Z,11.21
2023-05-10T20:10:25.714Z,11.21
2023-05-10T20:12:59.051Z,11.30
2023-05-10T20:15:30.012Z,11.35
2023-05-10T20:17:58.303Z,11.29
2023-05-10T20:20:26.675Z,11.31
2023-05-10T20:22:54.809Z,11.28
2023-05-10T20:25:23.029Z,11.26
2023-05-10T20:27:51.652Z,11.32
2023-05-10T20:30:20.024Z,11.37
2023-05-10T20:32:48.588Z,11.38
2023-05-10T20:35:16.942Z,11.34
2023-05-10T20:37:50.720Z,11.24
2023-05-10T20:40:19.095Z,11.18
2023-05-10T20:42:47.956Z,11.16
2023-05-10T20:45:16.247Z,11.10
2023-05-10T20:47:44.492Z,11.09
2023-05-10T20:50:12.697Z,11.03
2023-05-10T20:52:40.850Z,10.90
2023-05-10T20:55:09.746Z,10.88
2023-05-10T20:57:37.994Z,10.86
2023-05-10T21:00:09.593Z,10.92
2023-05-10T21:02:38.230Z,10.97
2023-05-10T21:05:07.240Z,11.02
2023-05-10T21:18:06.707Z,10.93
2023-05-10T21:20:34.876Z,10.92
2023-05-10T21:23:03.555Z,10.99
2023-05-10T21:25:32.407Z,10.87
2023-05-10T21:28:01.013Z,10.73
2023-05-10T21:30:29.211Z,10.70
2023-05-10T21:33:00.014Z,10.68
2023-05-10T21:39:12.542Z,10.68
2023-05-10T21:41:40.826Z,10.66
2023-05-10T21:44:09.449Z,10.57
2023-05-10T21:46:37.872Z,10.55
2023-05-10T21:49:06.038Z,10.51
2023-05-10T21:51:35.076Z,10.48
2023-05-10T21:54:03.415Z,10.46
2023-05-10T21:56:31.444Z,10.46
2023-05-10T21:58:59.700Z,10.46
2023-05-10T22:01:29.178Z,10.36
2023-05-10T22:03:57.257Z,10.35
2023-05-10T22:06:25.600Z,10.28
2023-05-10T22:08:53.933Z,10.19
2023-05-10T22:11:22.122Z,10.24
2023-05-10T22:13:50.108Z,10.28
2023-05-10T22:16:18.526Z,10.26
2023-05-10T22:18:46.804Z,10.21
2023-05-10T22:21:15.027Z,10.28
2023-05-10T22:23:42.953Z,10.26
2023-05-10T22:26:13.991Z,10.21
2023-05-10T22:28:43.205Z,10.19
2023-05-10T22:35:19.249Z,10.19
2023-05-10T22:37:47.466Z,10.17
2023-05-10T22:40:15.642Z,10.14
2023-05-10T22:42:44.019Z,10.12
2023-05-10T22:45:12.453Z,10.14
2023-05-10T22:47:41.186Z,10.17
2023-05-10T22:50:10.379Z,10.22
2023-05-10T22:52:39.440Z,10.29
2023-05-10T22:55:09.342Z,10.35
2023-05-10T23:01:45.652Z,10.33
2023-05-10T23:04:13.727Z,10.34
2023-05-10T23:06:41.792Z,10.30
2023-05-10T23:09:12.719Z,10.31
2023-05-10T23:11:41.991Z,10.32
2023-05-10T23:14:10.457Z,10.34
2023-05-10T23:16:38.720Z,10.36
2023-05-10T23:19:10.310Z,10.38
2023-05-10T23:21:38.685Z,10.37
2023-05-10T23:24:08.967Z,10.38
2023-05-10T23:26:37.338Z,10.31
2023-05-10T23:29:05.741Z,10.36
2023-05-10T23:31:33.855Z,10.29
2023-05-10T23:34:04.131Z,10.30
2023-05-10T23:36:33.834Z,10.28
2023-05-10T23:39:02.166Z,10.21
2023-05-10T23:41:30.276Z,10.25
2023-05-10T23:43:58.369Z,10.28
2023-05-10T23:46:26.696Z,10.27
2023-05-10T23:49:14.583Z,10.29
2023-05-10T23:51:42.885Z,10.23
2023-05-10T23:54:11.310Z,10.17
2023-05-10T23:56:39.398Z,10.18
2023-05-10T23:59:07.633Z,10.14
